Time;durP1;ratioP1;P1;durP2;ratioP2;P2;SDS_P1;SDS_P2;PMS_P1;PMS_P2;Temp;Humidity;BMP_temperature;BMP_pressure;BME280_temperature;BME280_humidity;BME280_pressure;Samples;Min_cycle;Max_cycle;Signal;HPM_P1;HPM_P2
2022/03/19 00:03:02;;;;;;;25.08;3.38;;;0.90;99.90;;;-0.70;100.00;104264.53;4980232;28;20030;-72
2022/03/19 00:05:29;;;;;;;37.33;4.15;;;0.90;99.90;;;-0.72;100.00;104266.16;4969256;28;20045;-73
2022/03/19 00:07:56;;;;;;;32.47;3.75;;;0.90;99.90;;;-0.70;100.00;104266.25;4965348;28;20042;-73
2022/03/19 00:10:22;;;;;;;25.95;4.22;;;0.90;99.90;;;-0.70;100.00;104266.25;4965400;28;20145;-73
2022/03/19 00:12:49;;;;;;;29.45;3.42;;;0.90;99.90;;;-0.72;100.00;104260.09;4983089;28;20046;-73
2022/03/19 00:15:16;;;;;;;33.05;4.40;;;0.90;99.90;;;-0.71;100.00;104269.66;4967783;28;20030;-73
2022/03/19 00:17:42;;;;;;;20.40;3.28;;;0.90;99.90;;;-0.75;100.00;104266.00;5006631;28;20069;-73
2022/03/19 00:20:10;;;;;;;33.95;3.58;;;0.80;99.90;;;-0.78;100.00;104264.91;4965355;28;20033;-73
2022/03/19 00:22:38;;;;;;;25.27;3.58;;;0.80;99.90;;;-0.89;100.00;104257.41;4983809;28;20038;-73
2022/03/19 00:25:04;;;;;;;25.17;3.35;;;0.70;99.90;;;-1.01;100.00;104259.31;5003995;28;20069;-73
2022/03/19 00:27:30;;;;;;;29.38;3.03;;;0.60;99.90;;;-1.11;100.00;104260.47;4983916;28;20073;-72
2022/03/19 00:29:56;;;;;;;26.77;3.58;;;0.60;99.90;;;-1.20;100.00;104254.75;4979945;28;20485;-73
2022/03/19 00:32:22;;;;;;;26.40;3.17;;;0.50;99.90;;;-1.25;100.00;104258.78;4982123;28;20061;-73
2022/03/19 00:34:48;;;;;;;18.65;3.20;;;0.40;99.90;;;-1.27;100.00;104265.56;4981963;28;20033;-73
2022/03/19 00:37:15;;;;;;;22.30;3.40;;;0.40;99.90;;;-1.26;100.00;104257.88;4985123;28;20496;-73
2022/03/19 00:39:40;;;;;;;30.95;2.50;;;0.40;99.90;;;-1.19;100.00;104266.88;4985649;28;20038;-73
2022/03/19 00:42:07;;;;;;;21.45;2.53;;;0.50;99.90;;;-1.12;100.00;104256.09;4972541;28;20138;-73
2022/03/19 00:44:33;;;;;;;21.05;2.53;;;0.50;99.90;;;-1.07;100.00;104249.50;4982024;28;20053;-73
2022/03/19 00:46:59;;;;;;;31.73;3.00;;;0.60;99.90;;;-1.07;100.00;104256.38;4991888;28;20818;-73
2022/03/19 00:49:25;;;;;;;34.70;3.58;;;0.60;99.90;;;-1.08;100.00;104258.06;5022735;23;20074;-74
2022/03/19 00:51:51;;;;;;;28.25;2.72;;;0.60;99.90;;;-1.02;100.00;104256.63;4973377;28;20042;-74
2022/03/19 00:54:17;;;;;;;25.38;3.38;;;0.70;99.90;;;-0.97;100.00;104258.69;4972236;28;20487;-74
2022/03/19 00:56:45;;;;;;;32.58;2.75;;;0.70;99.90;;;-0.94;100.00;104258.84;4964041;28;20105;-74
2022/03/19 00:59:11;;;;;;;25.27;2.95;;;0.70;99.90;;;-0.94;100.00;104253.69;4972338;28;20042;-74
2022/03/19 01:01:37;;;;;;;21.17;2.08;;;0.80;99.90;;;-0.87;100.00;104255.81;4968036;28;20030;-74
2022/03/19 01:04:04;;;;;;;21.02;2.58;;;0.80;99.90;;;-0.79;100.00;104253.69;4990995;28;20030;-75
2022/03/19 01:06:30;;;;;;;19.77;2.38;;;0.90;99.90;;;-0.78;100.00;104255.44;4981413;28;20491;-74
2022/03/19 01:08:57;;;;;;;20.67;2.63;;;1.00;99.90;;;-0.74;100.00;104259.09;4970965;28;20118;-76
2022/03/19 01:11:23;;;;;;;29.00;2.35;;;1.00;99.90;;;-0.66;100.00;104257.84;4962653;28;20054;-74
2022/03/19 01:13:55;;;;;;;32.47;3.10;;;1.10;99.90;;;-0.60;100.00;104263.38;4953420;28;20023;-74
2022/03/19 01:16:23;;;;;;;27.60;2.60;;;1.10;99.90;;;-0.57;100.00;104266.13;4986472;28;20031;-75
2022/03/19 01:18:49;;;;;;;18.20;2.85;;;1.20;99.90;;;-0.49;100.00;104263.97;4972010;28;20030;-74
2022/03/19 01:21:17;;;;;;;27.15;2.88;;;1.20;99.90;;;-0.40;100.00;104261.00;4969778;28;20027;-75
2022/03/19 01:23:43;;;;;;;28.52;2.95;;;1.30;99.90;;;-0.32;100.00;104254.56;4987425;28;20105;-75
2022/03/19 01:26:09;;;;;;;22.88;3.05;;;1.30;99.90;;;-0.26;100.00;104260.06;4974824;28;20042;-74
2022/03/19 01:28:35;;;;;;;22.05;2.17;;;1.40;99.90;;;-0.19;100.00;104258.69;4971709;28;20024;-74
2022/03/19 01:31:02;;;;;;;30.60;2.30;;;1.50;99.90;;;-0.15;100.00;104252.88;4970789;28;20200;-74
2022/03/19 01:33:28;;;;;;;26.98;2.30;;;1.50;99.90;;;-0.09;100.00;104256.69;4961054;28;20045;-74
2022/03/19 01:35:54;;;;;;;23.92;2.70;;;1.60;99.90;;;-0.04;100.00;104262.13;4986446;28;20121;-74
2022/03/19 01:38:20;;;;;;;17.35;2.13;;;1.60;99.90;;;-0.03;100.00;104251.84;4972154;28;20106;-74
2022/03/19 01:40:46;;;;;;;19.10;2.17;;;1.60;99.90;;;0.00;100.00;104258.91;4970431;28;20073;-74
2022/03/19 01:43:12;;;;;;;20.63;2.35;;;1.70;99.90;;;0.03;100.00;104247.81;4986219;28;20495;-74
2022/03/19 01:45:38;;;;;;;23.42;2.13;;;1.70;99.90;;;0.06;100.00;104251.44;4988718;28;20034;-75
2022/03/19 01:48:04;;;;;;;19.83;2.40;;;1.70;99.90;;;0.04;100.00;104249.56;4987815;28;20529;-74
2022/03/19 01:50:30;;;;;;;23.40;2.25;;;1.70;99.90;;;0.03;100.00;104246.09;4964450;28;20045;-74
2022/03/19 01:52:57;;;;;;;20.88;2.60;;;1.70;99.90;;;0.00;100.00;104248.53;4980626;28;20038;-74
2022/03/19 01:55:26;;;;;;;11.65;2.20;;;1.70;99.90;;;-0.01;100.00;104247.63;4972574;28;20467;-74
2022/03/19 01:57:54;;;;;;;22.50;2.83;;;1.70;99.90;;;-0.03;100.00;104248.34;4954512;28;20030;-74
2022/03/19 02:00:23;;;;;;;27.42;2.60;;;1.70;99.90;;;-0.04;100.00;104239.69;4972595;28;20142;-75
2022/03/19 02:02:52;;;;;;;15.05;2.40;;;1.70;99.90;;;-0.05;100.00;104239.63;4973092;28;20114;-74
2022/03/19 02:05:22;;;;;;;17.00;2.33;;;1.60;99.90;;;-0.19;100.00;104232.78;4954619;28;20030;-74
2022/03/19 02:07:50;;;;;;;24.35;2.25;;;1.60;99.90;;;-0.19;100.00;104238.88;4961646;28;20018;-74
2022/03/19 02:10:21;;;;;;;18.58;1.70;;;1.50;99.90;;;-0.22;100.00;104233.50;4987077;28;20029;-74
2022/03/19 02:12:50;;;;;;;24.85;2.20;;;1.50;99.90;;;-0.24;100.00;104228.28;4970635;28;20042;-74
2022/03/19 02:15:17;;;;;;;23.02;2.30;;;1.40;99.90;;;-0.30;100.00;104232.19;4978914;28;20042;-74
2022/03/19 02:17:43;;;;;;;22.83;2.40;;;1.50;99.90;;;-0.28;100.00;104228.91;4978612;28;20031;-74
2022/03/19 02:20:11;;;;;;;21.30;2.45;;;1.50;99.90;;;-0.21;100.00;104231.03;4945838;28;20042;-74
2022/03/19 02:22:37;;;;;;;14.15;2.17;;;1.50;99.90;;;-0.13;100.00;104223.69;4971033;28;20129;-74
2022/03/19 02:27:49;;;;;;;;;;;1.60;99.90;;;-0.10;100.00;104231.59;4963322;28;20089;-74
2022/03/19 02:30:16;;;;;;;26.67;2.97;;;1.60;99.90;;;-0.06;100.00;104223.19;4973761;28;19917;-74
2022/03/19 02:32:49;;;;;;;26.55;2.83;;;1.70;99.90;;;-0.04;100.00;104231.03;4969084;28;20077;-74
2022/03/19 02:35:18;;;;;;;17.17;1.90;;;1.70;99.90;;;-0.01;100.00;104231.19;4969997;28;20395;-75
2022/03/19 02:37:47;;;;;;;16.70;1.63;;;1.70;99.90;;;-0.01;100.00;104228.59;4977080;28;20030;-74
2022/03/19 02:40:21;;;;;;;23.35;2.50;;;1.70;99.90;;;-0.01;100.00;104219.13;4981433;28;20092;-74
2022/03/19 02:42:56;;;;;;;22.70;2.05;;;1.70;99.90;;;0.00;100.00;104217.44;4984969;28;20164;-74
2022/03/19 02:45:24;;;;;;;23.73;2.60;;;1.80;99.90;;;0.01;100.00;104220.94;4970933;28;20437;-74
2022/03/19 02:47:57;;;;;;;23.42;2.72;;;1.70;99.90;;;0.04;100.00;104221.97;4971947;28;20088;-74
2022/03/19 02:50:26;;;;;;;24.38;2.40;;;1.80;99.90;;;0.11;100.00;104220.56;4982966;28;20665;-74
2022/03/19 02:52:52;;;;;;;21.77;2.90;;;1.80;99.90;;;0.16;100.00;104222.63;4966123;28;20081;-74
2022/03/19 02:55:18;;;;;;;18.52;2.10;;;1.80;99.90;;;0.15;100.00;104222.53;4987229;28;20026;-74
2022/03/19 02:57:44;;;;;;;29.33;4.35;;;3.60;99.90;;;0.13;100.00;104217.28;4986463;28;20031;-74
2022/03/19 03:00:10;;;;;;;23.35;2.85;;;1.80;99.90;;;0.14;100.00;104237.19;4989993;28;20018;-74
2022/03/19 03:02:36;;;;;;;26.15;2.47;;;1.80;99.90;;;0.13;100.00;104219.88;4983112;28;20077;-74
2022/03/19 03:05:03;;;;;;;24.95;2.42;;;1.80;99.90;;;0.15;100.00;104218.25;4970111;28;20104;-74
2022/03/19 03:07:29;;;;;;;19.13;2.50;;;1.80;99.90;;;0.10;100.00;104221.41;4971025;28;20023;-75
2022/03/19 03:09:55;;;;;;;21.58;2.55;;;1.80;99.90;;;0.07;100.00;104222.13;4970768;28;20118;-74
2022/03/19 03:12:20;;;;;;;25.23;2.92;;;1.80;99.90;;;0.09;100.00;104225.69;4969182;28;20038;-74
2022/03/19 03:14:47;;;;;;;24.50;2.20;;;1.80;99.90;;;0.12;100.00;104224.97;4971232;28;20434;-73
2022/03/19 03:17:13;;;;;;;15.07;2.20;;;1.80;99.90;;;0.10;100.00;104230.06;4986258;28;20138;-75
2022/03/19 03:19:39;;;;;;;15.00;2.35;;;1.80;99.90;;;0.09;100.00;104230.88;4978226;28;20022;-74
2022/03/19 03:22:08;;;;;;;13.77;1.60;;;1.80;99.90;;;0.04;100.00;104227.13;4971735;28;20092;-75
2022/03/19 03:24:36;;;;;;;16.50;2.10;;;1.80;99.90;;;0.03;100.00;104232.25;4984046;28;20364;-75
2022/03/19 03:27:03;;;;;;;16.42;1.92;;;1.70;99.90;;;-0.02;100.00;104234.63;4976852;28;20069;-74
2022/03/19 03:29:29;;;;;;;28.98;2.85;;;1.70;99.90;;;-0.13;100.00;104228.84;4971572;28;20397;-74
2022/03/19 03:31:55;;;;;;;23.40;2.15;;;1.70;99.90;;;-0.11;100.00;104228.91;4974981;28;20061;-74
2022/03/19 03:34:21;;;;;;;14.20;2.08;;;1.70;99.90;;;-0.09;100.00;104222.13;4954037;28;20398;-74
2022/03/19 03:36:50;;;;;;;11.27;2.28;;;1.70;99.90;;;-0.14;100.00;104228.75;4969068;28;20041;-74
2022/03/19 03:39:20;;;;;;;21.92;2.42;;;1.60;99.90;;;-0.12;100.00;104229.75;4963967;28;20137;-74
2022/03/19 03:41:47;;;;;;;20.50;2.15;;;1.60;99.90;;;-0.15;100.00;104235.66;4968203;28;20027;-74
2022/03/19 03:44:14;;;;;;;20.83;2.42;;;1.60;99.90;;;-0.16;100.00;104226.09;4971646;28;20034;-74
2022/03/19 03:46:40;;;;;;;21.83;2.35;;;1.60;99.90;;;-0.16;100.00;104231.25;4969183;28;20152;-74
2022/03/19 03:49:08;;;;;;;17.00;2.53;;;1.50;99.90;;;-0.21;100.00;104233.59;4952690;28;20045;-74
2022/03/19 03:51:34;;;;;;;15.68;2.55;;;1.50;99.90;;;-0.27;100.00;104233.28;4967532;28;20030;-74
2022/03/19 03:54:00;;;;;;;12.18;1.77;;;1.50;99.90;;;-0.28;100.00;104239.28;4985577;28;20025;-74
2022/03/19 03:56:26;;;;;;;18.23;2.30;;;1.50;99.90;;;-0.29;100.00;104234.00;4950938;28;20023;-74
2022/03/19 03:58:52;;;;;;;19.83;2.03;;;1.50;99.90;;;-0.25;100.00;104239.44;4971089;28;21391;-75
2022/03/19 04:01:19;;;;;;;20.70;2.42;;;1.50;99.90;;;-0.18;100.00;104239.75;4976805;28;20030;-74
2022/03/19 04:03:45;;;;;;;32.20;3.25;;;1.50;99.90;;;-0.16;100.00;104246.81;4969913;28;20023;-75
2022/03/19 04:06:11;;;;;;;24.33;2.45;;;1.60;99.90;;;-0.09;100.00;104248.03;4970429;28;20042;-74
2022/03/19 04:08:37;;;;;;;23.90;2.40;;;1.60;99.90;;;0.01;100.00;104244.25;4983862;28;20019;-74
2022/03/19 04:11:04;;;;;;;16.30;2.30;;;1.70;99.90;;;0.11;100.00;104246.50;4971016;28;20022;-74
2022/03/19 04:13:30;;;;;;;17.25;2.50;;;1.80;99.90;;;0.17;100.00;104239.03;4953172;28;20038;-74
2022/03/19 04:15:55;;;;;;;23.70;2.53;;;1.80;99.90;;;0.27;100.00;104249.09;4968643;28;20022;-74
2022/03/19 04:18:21;;;;;;;19.42;2.15;;;1.90;99.90;;;0.37;100.00;104255.66;4961715;28;20075;-74
2022/03/19 04:20:48;;;;;;;22.80;2.10;;;2.00;99.90;;;0.46;100.00;104245.75;4973199;28;20794;-74
2022/03/19 04:23:13;;;;;;;23.85;2.42;;;2.10;99.90;;;0.51;100.00;104248.59;4954446;28;20088;-74
2022/03/19 04:25:40;;;;;;;22.70;2.28;;;2.10;99.90;;;0.47;100.00;104251.84;4969196;28;20038;-74
2022/03/19 04:28:06;;;;;;;21.15;2.20;;;2.10;99.90;;;0.47;100.00;104252.72;4968764;28;20812;-74
2022/03/19 04:30:32;;;;;;;18.13;2.13;;;2.10;99.90;;;0.47;100.00;104247.53;4984136;28;20038;-74
2022/03/19 04:33:01;;;;;;;14.90;2.28;;;2.10;99.90;;;0.51;100.00;104252.06;4970896;28;20410;-74
2022/03/19 04:38:18;;;;;;;17.52;2.13;;;2.20;99.90;;;0.55;100.00;104250.53;4960757;28;20025;-74
2022/03/19 04:40:47;;;;;;;26.50;2.15;;;2.20;99.90;;;0.55;100.00;104250.53;4951038;28;20027;-74
2022/03/19 04:43:13;;;;;;;20.73;2.00;;;2.10;99.90;;;0.53;100.00;104250.44;4966850;28;20035;-75
2022/03/19 04:45:41;;;;;;;13.30;2.05;;;2.10;99.90;;;0.51;100.00;104257.25;4974528;28;20154;-74
2022/03/19 04:48:09;;;;;;;18.77;2.30;;;2.10;99.90;;;0.48;100.00;104254.53;4970947;28;20912;-74
2022/03/19 04:50:45;;;;;;;18.85;2.22;;;2.10;99.90;;;0.51;100.00;104256.38;4966790;28;20035;-74
2022/03/19 04:53:13;;;;;;;20.83;2.65;;;2.10;99.90;;;0.48;100.00;104249.34;4969597;28;20051;-75
2022/03/19 04:55:40;;;;;;;19.58;2.58;;;2.10;99.90;;;0.55;100.00;104260.91;4955866;28;20106;-74
2022/03/19 04:58:10;;;;;;;14.10;1.90;;;2.20;99.90;;;0.58;100.00;104255.88;4971955;28;20049;-73
2022/03/19 05:00:37;;;;;;;22.35;2.78;;;2.20;99.90;;;0.66;100.00;104256.28;4971483;28;20026;-74
2022/03/19 05:03:06;;;;;;;20.85;2.78;;;2.30;99.90;;;0.72;100.00;104256.59;4972812;28;20100;-75
2022/03/19 05:05:32;;;;;;;20.98;1.85;;;2.30;99.90;;;0.76;100.00;104254.22;4971874;28;20038;-74
2022/03/19 05:07:58;;;;;;;19.73;2.65;;;2.30;99.90;;;0.82;100.00;104257.13;4960457;28;20022;-74
2022/03/19 05:13:09;;;;;;;22.00;2.50;;;2.40;99.90;;;0.95;100.00;104268.09;4976800;28;20053;-74
2022/03/19 05:15:36;;;;;;;31.63;2.70;;;2.50;99.90;;;0.93;100.00;104268.06;4963954;28;20033;-74
2022/03/19 05:18:02;;;;;;;15.90;1.75;;;2.50;99.90;;;0.99;100.00;104265.78;4965523;28;20030;-75
2022/03/19 05:20:28;;;;;;;21.30;2.05;;;2.50;99.90;;;0.97;100.00;104270.00;4971616;28;20031;-74
2022/03/19 05:22:54;;;;;;;13.95;1.88;;;2.60;99.90;;;1.05;100.00;104270.34;4976941;28;20936;-74
2022/03/19 05:25:20;;;;;;;11.27;1.65;;;2.60;99.90;;;1.09;100.00;104269.69;4970841;28;20169;-74
2022/03/19 05:27:47;;;;;;;14.88;1.50;;;2.50;99.90;;;1.03;100.00;104284.97;4975182;28;20394;-75
2022/03/19 05:30:13;;;;;;;22.60;2.53;;;2.50;99.90;;;1.00;100.00;104290.88;4973399;28;20100;-75
2022/03/19 05:32:39;;;;;;;22.90;2.33;;;2.50;99.90;;;1.02;100.00;104286.66;4970420;28;20041;-75
2022/03/19 05:35:07;;;;;;;23.83;2.30;;;2.50;99.90;;;1.01;100.00;104292.66;4987884;28;20046;-74
2022/03/19 05:37:33;;;;;;;15.20;1.60;;;2.60;99.90;;;1.11;100.00;104291.44;4973602;28;20035;-75
2022/03/19 05:40:01;;;;;;;11.90;1.48;;;2.60;99.90;;;1.21;100.00;104285.00;4971049;28;20038;-74
2022/03/19 05:42:28;;;;;;;18.45;2.20;;;2.70;99.90;;;1.28;100.00;104283.59;4986660;28;20038;-75
2022/03/19 05:44:55;;;;;;;13.07;2.53;;;2.70;99.90;;;1.35;100.00;104283.94;4974201;28;20038;-74
2022/03/19 05:47:21;;;;;;;17.50;2.00;;;2.80;99.90;;;1.43;100.00;104285.22;4955387;28;20030;-74
2022/03/19 05:49:47;;;;;;;18.42;2.42;;;2.80;99.90;;;1.48;100.00;104289.75;4962275;28;20173;-75
2022/03/19 05:52:14;;;;;;;19.98;2.85;;;2.90;99.90;;;1.66;100.00;104293.22;4988137;28;20053;-75
2022/03/19 05:54:40;;;;;;;14.77;2.40;;;2.90;99.90;;;2.00;100.00;104287.88;4962186;28;20100;-75
2022/03/19 05:57:06;;;;;;;13.13;1.77;;;3.00;99.90;;;2.60;100.00;104294.88;4985677;28;20053;-75
2022/03/19 05:59:32;;;;;;;18.75;2.10;;;3.20;99.90;;;2.64;100.00;104287.28;4972791;28;20132;-74
2022/03/19 06:01:58;;;;;;;17.23;2.00;;;3.30;99.90;;;2.18;100.00;104289.53;4972212;28;20106;-74
2022/03/19 06:04:24;;;;;;;19.40;2.08;;;3.40;99.90;;;2.60;100.00;104294.88;4970946;28;20245;-74
2022/03/19 06:06:50;;;;;;;15.20;1.58;;;3.40;99.90;;;2.33;100.00;104289.34;4972164;28;20031;-74
2022/03/19 06:09:16;;;;;;;13.88;1.70;;;3.50;99.90;;;3.48;100.00;104289.91;4973081;28;20834;-75
2022/03/19 06:11:44;;;;;;;21.15;2.42;;;3.90;99.90;;;6.30;100.00;104300.38;4961801;28;20026;-74
2022/03/19 06:14:10;;;;;;;13.27;1.52;;;4.50;99.90;;;6.72;91.13;104305.06;4972058;28;20038;-76
2022/03/19 06:16:39;;;;;;;23.30;2.10;;;4.90;99.90;;;5.11;88.33;104298.44;4969151;28;20025;-76
2022/03/19 06:19:04;;;;;;;18.60;2.15;;;5.10;99.90;;;6.36;89.14;104313.66;4965634;28;20030;-75
2022/03/19 06:21:31;;;;;;;13.05;1.70;;;5.60;99.90;;;10.42;79.63;104320.91;4972789;28;20475;-75
2022/03/19 06:23:57;;;;;;;16.60;2.00;;;6.70;99.90;;;13.06;64.19;104313.66;4981619;28;20023;-75
2022/03/19 06:26:23;;;;;;;17.13;2.88;;;7.80;99.90;;;12.44;60.32;104313.56;4969828;28;20403;-73
2022/03/19 06:28:53;;;;;;;18.25;2.05;;;8.30;99.90;;;9.81;64.07;104319.22;4971074;28;20026;-73
2022/03/19 06:31:19;;;;;;;14.10;1.77;;;8.30;99.90;;;9.09;67.86;104328.63;4970174;28;20499;-73
2022/03/19 06:33:45;;;;;;;16.73;1.70;;;8.30;99.90;;;10.46;67.60;104341.16;4963188;28;20046;-73
2022/03/19 06:38:57;;;;;;;14.43;1.88;;;8.70;99.90;;;10.32;64.51;104348.00;4965353;28;20030;-73
2022/03/19 06:41:24;;;;;;;8.90;1.55;;;8.90;99.90;;;11.61;64.00;104354.50;4976380;28;20026;-73
2022/03/19 06:43:50;;;;;;;14.35;1.90;;;9.40;99.90;;;15.95;54.74;104362.50;4968542;28;20062;-73
2022/03/19 06:46:16;;;;;;;12.80;2.00;;;10.80;99.90;;;18.91;47.24;104388.44;4985828;28;20042;-74
2022/03/19 06:48:42;;;;;;;11.05;1.80;;;12.10;99.90;;;20.06;43.36;104397.91;4972204;28;20495;-74
2022/03/19 06:51:08;;;;;;;14.00;2.22;;;13.30;99.90;;;20.51;41.34;104401.97;4974650;28;20042;-74
2022/03/19 06:53:36;;;;;;;13.75;2.00;;;14.30;99.90;;;21.90;39.71;104426.81;4985202;28;20503;-73
2022/03/19 06:56:03;;;;;;;10.13;1.90;;;15.10;99.90;;;22.09;38.43;104436.88;4984564;28;20066;-74
2022/03/19 06:58:29;;;;;;;11.10;1.80;;;15.60;99.90;;;21.79;38.29;104446.91;4961910;28;20101;-74
2022/03/19 07:00:55;;;;;;;11.88;1.98;;;15.70;99.90;;;21.20;38.45;104448.00;4982193;28;20022;-74
2022/03/19 07:03:21;;;;;;;10.68;1.95;;;16.10;99.90;;;21.96;37.84;104460.59;4953219;28;20030;-74
2022/03/19 07:05:47;;;;;;;8.95;1.88;;;16.60;99.90;;;22.35;37.03;104473.50;4971470;28;20573;-73
2022/03/19 07:08:13;;;;;;;9.85;1.65;;;17.00;99.90;;;21.82;36.71;104471.84;4983523;28;20038;-74
2022/03/19 07:10:39;;;;;;;7.35;1.75;;;17.00;99.00;;;21.43;36.98;104471.41;4970852;28;20534;-73
2022/03/19 07:13:05;;;;;;;6.72;1.58;;;17.40;99.90;;;22.49;36.38;104481.06;4977924;28;20411;-74
2022/03/19 07:15:31;;;;;;;8.65;1.63;;;17.30;99.50;;;21.53;37.01;104482.69;4984975;28;20042;-74
2022/03/19 07:18:02;;;;;;;9.23;1.80;;;17.10;98.50;;;20.71;38.25;104479.88;4968721;28;21136;-74
2022/03/19 07:20:30;;;;;;;9.75;1.75;;;17.20;98.90;;;21.24;37.88;104481.81;4967603;28;20018;-74
2022/03/19 07:23:07;;;;;;;9.40;1.60;;;17.50;97.90;;;20.96;37.25;104484.50;4970807;28;20030;-74
2022/03/19 07:25:38;;;;;;;9.95;1.75;;;17.30;97.90;;;19.97;38.10;104487.31;4983657;28;20085;-75
2022/03/19 07:28:09;;;;;;;7.00;1.40;;;17.00;98.00;;;19.65;39.50;104491.72;4968137;28;20105;-74
2022/03/19 07:30:36;;;;;;;5.65;1.50;;;16.80;98.30;;;19.65;40.04;104493.47;4947518;28;20036;-73
2022/03/19 07:33:03;;;;;;;7.72;1.40;;;16.60;97.50;;;18.40;40.54;104482.94;4976513;28;20052;-74
2022/03/19 07:35:29;;;;;;;8.00;1.60;;;16.30;98.20;;;17.96;41.98;104489.13;4953736;28;20027;-74
2022/03/19 07:37:59;;;;;;;5.90;1.42;;;15.60;98.80;;;16.94;43.68;104488.06;4969257;28;20368;-73
2022/03/19 07:43:13;;;;;;;5.70;1.15;;;15.50;99.30;;;16.39;44.40;104486.03;4972156;28;20088;-73
2022/03/19 07:45:41;;;;;;;4.38;1.48;;;15.80;99.80;;;17.37;43.90;104482.09;4960481;28;20053;-74
2022/03/19 07:48:09;;;;;;;4.63;1.70;;;15.60;98.70;;;16.52;44.44;104497.44;4960418;28;20026;-74
2022/03/19 07:50:38;;;;;;;8.65;1.60;;;15.90;99.50;;;17.48;43.80;104487.25;4968067;28;20248;-75
2022/03/19 07:53:06;;;;;;;6.30;1.77;;;16.10;98.90;;;17.43;44.13;104482.00;4968392;28;20103;-75
2022/03/19 07:55:34;;;;;;;5.32;1.55;;;16.10;97.80;;;16.55;44.79;104484.97;4951382;28;20757;-74
2022/03/19 07:58:00;;;;;;;6.22;1.70;;;16.00;98.80;;;16.59;45.33;104486.72;4986505;28;20034;-74
2022/03/19 08:00:26;;;;;;;6.85;1.83;;;15.50;99.20;;;15.88;46.73;104472.44;4968847;28;20026;-74
2022/03/19 08:02:53;;;;;;;5.60;1.65;;;15.40;98.90;;;15.71;47.12;104481.41;4984412;28;20023;-74
2022/03/19 08:05:19;;;;;;;4.72;1.30;;;15.40;99.20;;;15.12;47.12;104491.56;4973554;28;20473;-75
2022/03/19 08:07:46;;;;;;;3.83;1.45;;;14.80;99.10;;;14.48;48.84;104473.25;4988900;28;20037;-74
2022/03/19 08:10:13;;;;;;;7.38;1.92;;;14.60;99.40;;;14.08;49.49;104468.94;4945184;28;20035;-75
2022/03/19 08:12:42;;;;;;;5.63;1.60;;;14.50;99.90;;;14.43;50.57;104465.31;4952913;28;20073;-74
2022/03/19 08:15:10;;;;;;;6.70;1.70;;;15.10;99.90;;;14.59;48.67;104470.59;4967493;28;20576;-74
2022/03/19 08:17:37;;;;;;;4.40;1.60;;;14.90;99.60;;;14.20;48.55;104472.44;4982372;28;20026;-74
2022/03/19 08:20:08;;;;;;;11.73;1.80;;;14.40;99.80;;;13.19;50.76;104466.25;4968824;28;20126;-75
2022/03/19 08:22:35;;;;;;;5.35;1.55;;;14.80;99.90;;;13.85;49.67;104468.09;4969033;28;20026;-75
2022/03/19 08:25:03;;;;;;;6.75;1.67;;;14.70;99.30;;;14.12;49.59;104467.16;4974483;28;20109;-75
2022/03/19 08:27:29;;;;;;;5.80;1.58;;;14.80;99.90;;;13.67;49.90;104466.31;4960611;28;20023;-75
2022/03/19 08:29:55;;;;;;;5.85;1.85;;;14.20;98.90;;;12.73;50.93;104476.69;4962417;28;20038;-74
2022/03/19 08:32:22;;;;;;;5.28;1.90;;;13.40;99.90;;;11.95;53.98;104465.69;4954659;28;20112;-75
2022/03/19 08:34:51;;;;;;;6.05;1.92;;;13.10;99.90;;;11.67;53.93;104460.16;4978432;28;20774;-74
2022/03/19 08:37:17;;;;;;;7.35;1.58;;;13.00;99.90;;;11.72;54.31;104468.09;4956875;28;20058;-74
2022/03/19 08:42:28;;;;;;;4.47;1.60;;;13.60;99.90;;;12.52;53.28;104461.59;4983940;28;20089;-76
2022/03/19 08:44:57;;;;;;;4.00;1.40;;;13.60;99.90;;;12.60;53.33;104467.81;4966286;28;20109;-75
2022/03/19 08:47:23;;;;;;;5.40;1.48;;;13.50;99.90;;;12.13;53.85;104462.28;4971911;28;20643;-75
2022/03/19 08:49:49;;;;;;;7.88;2.17;;;13.40;99.90;;;11.95;54.09;104452.47;4963950;28;20034;-74
2022/03/19 08:52:15;;;;;;;1.83;1.00;;;13.20;99.90;;;11.50;54.75;104465.28;4985514;28;20120;-75
2022/03/19 08:54:41;;;;;;;4.68;1.40;;;12.80;99.90;;;11.19;55.30;104451.81;4964479;28;20519;-74
2022/03/19 08:57:07;;;;;;;3.38;1.58;;;12.60;99.90;;;11.41;56.63;104455.53;4970593;28;20174;-75
2022/03/19 08:59:33;;;;;;;8.65;1.67;;;12.50;99.90;;;10.94;56.54;104453.28;4959035;28;20517;-75
2022/03/19 09:01:59;;;;;;;6.30;1.80;;;12.40;99.90;;;11.36;57.36;104459.88;4984127;28;20026;-74
2022/03/19 09:04:25;;;;;;;6.15;1.75;;;12.10;99.90;;;10.65;57.69;104458.22;4945847;28;20029;-75
2022/03/19 09:06:51;;;;;;;5.47;1.77;;;12.10;99.90;;;11.04;57.42;104455.16;4956836;28;20379;-74
2022/03/19 09:09:17;;;;;;;3.15;1.38;;;12.30;99.90;;;10.85;56.28;104472.50;4971993;28;20023;-74
2022/03/19 09:11:43;;;;;;;7.90;1.60;;;12.20;99.90;;;11.26;57.41;104453.63;4979113;28;20491;-74
2022/03/19 09:14:10;;;;;;;5.97;2.17;;;12.40;99.90;;;11.45;56.92;104459.09;4979695;28;20167;-75
2022/03/19 09:16:36;;;;;;;4.38;1.58;;;12.20;99.90;;;11.02;57.24;104456.00;4972658;28;20034;-75
2022/03/19 09:19:04;;;;;;;3.08;1.42;;;11.90;99.90;;;10.33;57.97;104449.88;4969465;28;20030;-74
2022/03/19 09:21:30;;;;;;;6.25;1.95;;;11.60;99.90;;;10.54;59.39;104444.00;4963886;28;20981;-74
2022/03/19 09:23:59;;;;;;;5.70;1.48;;;11.40;99.90;;;10.08;59.93;104441.56;4969900;28;20495;-74
2022/03/19 09:26:26;;;;;;;4.55;1.42;;;11.20;99.90;;;9.75;60.43;104449.84;4958608;28;20054;-75
2022/03/19 09:28:52;;;;;;;4.60;1.58;;;10.70;99.90;;;9.17;61.00;104445.31;4970231;28;20035;-75
2022/03/19 09:31:19;;;;;;;4.75;1.63;;;10.50;99.90;;;9.16;62.83;104446.19;4970422;28;20101;-75
2022/03/19 09:33:47;;;;;;;4.40;1.73;;;10.20;99.90;;;8.81;62.70;104441.16;4970084;28;20046;-74
2022/03/19 09:36:14;;;;;;;7.78;1.88;;;10.00;99.90;;;8.63;63.84;104452.16;4972815;28;20430;-75
2022/03/19 09:38:41;;;;;;;3.78;1.60;;;9.80;99.90;;;8.20;65.42;104438.03;4987801;28;20032;-75
2022/03/19 09:41:08;;;;;;;5.40;1.90;;;9.70;99.90;;;8.31;65.91;104442.66;4985288;28;20046;-74
2022/03/19 09:43:35;;;;;;;4.68;1.80;;;9.70;99.90;;;8.37;66.46;104437.53;4961261;28;20392;-74
2022/03/19 09:46:07;;;;;;;5.65;2.00;;;9.70;99.90;;;8.48;65.78;104435.19;4989737;28;20057;-74
2022/03/19 09:48:36;;;;;;;3.22;1.33;;;9.70;99.90;;;8.39;65.96;104460.34;4981722;28;20164;-74
2022/03/19 09:51:07;;;;;;;2.72;1.73;;;9.30;99.90;;;7.78;66.50;104422.19;4970667;28;20046;-74
2022/03/19 09:53:39;;;;;;;3.13;1.40;;;9.40;99.90;;;7.96;67.13;104425.25;4983225;28;20518;-74
2022/03/19 09:56:10;;;;;;;3.60;1.75;;;9.50;99.90;;;8.15;67.21;104425.69;4986012;28;20423;-74
2022/03/19 09:58:38;;;;;;;3.67;1.70;;;9.50;99.90;;;8.21;67.03;104420.56;4972824;28;20475;-74
2022/03/19 10:01:13;;;;;;;5.80;1.60;;;9.50;99.90;;;8.11;67.07;104415.97;4977924;28;20054;-75
2022/03/19 10:03:45;;;;;;;6.03;1.60;;;9.50;99.90;;;8.01;67.45;104418.38;4950721;28;20026;-75
2022/03/19 10:09:01;;;;;;;6.97;2.40;;;9.20;99.90;;;7.83;68.43;104393.44;4960635;28;20853;-76
2022/03/19 10:11:38;;;;;;;4.15;1.88;;;9.30;99.90;;;8.12;69.71;104386.22;4970618;28;20026;-75
2022/03/19 10:14:06;;;;;;;6.28;2.03;;;9.50;99.90;;;8.33;68.40;104386.69;4959534;28;20061;-76
2022/03/19 10:16:39;;;;;;;8.48;2.70;;;9.50;99.90;;;8.38;68.48;104392.94;4943791;28;21535;-76
2022/03/19 10:19:09;;;;;;;3.90;1.95;;;9.60;99.90;;;8.50;68.11;104388.81;4976838;28;20650;-75
2022/03/19 10:21:41;;;;;;;4.88;1.95;;;9.80;99.90;;;8.52;67.65;104395.00;4979327;28;20042;-76
2022/03/19 10:24:25;;;;;;;2.47;1.70;;;9.70;99.90;;;8.35;68.13;104378.84;4968775;28;20041;-76
2022/03/19 10:26:52;;;;;;;5.18;2.17;;;9.60;99.90;;;8.19;67.96;104375.91;4962382;28;20545;-76
2022/03/19 10:29:33;;;;;;;5.55;1.95;;;9.70;99.90;;;8.28;67.17;104380.47;4961567;28;20140;-75
2022/03/19 10:32:07;;;;;;;5.65;1.73;;;9.70;99.90;;;8.35;67.12;104413.88;4987969;28;20034;-76
2022/03/19 10:34:40;;;;;;;5.30;1.60;;;9.50;99.90;;;8.09;67.90;104378.28;4968767;28;20022;-76